Time;durP1;ratioP1;P1;durP2;ratioP2;P2;SDS_P1;SDS_P2;PMS_P1;PMS_P2;Temp;Humidity;BMP_temperature;BMP_pressure;BME280_temperature;BME280_humidity;BME280_pressure;Samples;Min_cycle;Max_cycle;Signal;HPM_P1;HPM_P2
2022/04/24 00:00:08;;;;;;;;;;;;;;;;;;343296;28;1472;-41
2022/04/24 00:00:18;;;;;;;;;;;;;;;;;;344034;28;1377;-40
2022/04/24 00:00:29;;;;;;;;;;;;;;;;;;343588;28;1648;-41
2022/04/24 00:00:41;;;;;;;;;;;;;;;;;;344135;28;850;-41
2022/04/24 00:00:51;;;;;;;;;;;;;;;;;;344982;28;851;-40
2022/04/24 00:01:01;;;;;;;;;;;;;;;;;;344782;28;1126;-40
2022/04/24 00:01:12;;;;;;;;;;;;;;;;;;340306;28;2684;-41
2022/04/24 00:01:22;;;;;;;;;;;;;;;;;;344690;28;977;-41
2022/04/24 00:01:32;;;;;;;;;;;;;;;;;;344948;28;808;-40
2022/04/24 00:01:43;;;;;;;;;;;;;;;;;;344703;28;1071;-41
2022/04/24 00:01:53;;;;;;;;;;;;;;;;;;344884;28;922;-41
2022/04/24 00:02:04;;;;;;;;;;;;;;;;;;344909;28;807;-40
2022/04/24 00:02:14;;;;;;;;;;;;;;;;;;344623;28;980;-40
2022/04/24 00:02:24;;;;;;;;;;;;;;;;;;343303;28;843;-41
2022/04/24 00:02:35;;;;;;;;;;;;;;;;;;342983;28;938;-42
2022/04/24 00:02:45;;;;;;;;;;;;;;;;;;341176;28;883;-41
2022/04/24 00:02:56;;;;;;;;;;;;;;;;;;343362;28;954;-40
2022/04/24 00:03:06;;;;;;;;;;;;;;;;;;343680;28;867;-41
2022/04/24 00:03:17;;;;;;;;;;;;;;;;;;343426;28;883;-40
2022/04/24 00:03:28;;;;;;;;;;;;;;;;;;343272;28;941;-40
2022/04/24 00:03:39;;;;;;;;;;;;;;;;;;343539;28;1013;-41
2022/04/24 00:03:49;;;;;;;;;;;;;;;;;;343669;28;783;-41
2022/04/24 00:04:00;;;;;;;;;;;;;;;;;;343518;28;898;-38
2022/04/24 00:04:11;;;;;;;;;;;;;;;;;;342301;28;913;-41
2022/04/24 00:04:24;;;;;;;;;;;;;;;;;;343302;28;871;-41
2022/04/24 00:04:35;;;;;;;;;;;;;;;;;;343386;28;910;-39
2022/04/24 00:04:45;;;;;;;;;;;;;;;;;;343456;28;902;-39
2022/04/24 00:04:55;;;;;;;;;;;;;;;;;;341993;28;913;-41
2022/04/24 00:05:06;;;;;;;;;;;;;;;;;;343529;28;894;-41
2022/04/24 00:05:16;;;;;;;;;;;;;;;;;;343496;28;933;-41
2022/04/24 00:05:26;;;;;;;;;;;;;;;;;;343262;28;941;-41
2022/04/24 00:05:37;;;;;;;;;;;;;;;;;;340436;28;906;-41
2022/04/24 00:05:47;;;;;;;;;;;;;;;;;;343537;28;925;-40
2022/04/24 00:05:58;;;;;;;;;;;;;;;;;;343482;28;835;-41
2022/04/24 00:06:08;;;;;;;;;;;;;;;;;;343490;28;953;-40
2022/04/24 00:06:18;;;;;;;;;;;;;;;;;;343569;28;846;-41
2022/04/24 00:06:31;;;;;;;;;;;;;;;;;;343357;28;890;-40
2022/04/24 00:06:42;;;;;;;;;;;;;;;;;;343387;28;960;-38
2022/04/24 00:06:53;;;;;;;;;;;;;;;;;;343576;28;1000;-36
2022/04/24 00:07:03;;;;;;;;;;;;;;;;;;343498;28;964;-41
2022/04/24 00:07:14;;;;;;;;;;;;;;;;;;343582;28;898;-38
2022/04/24 00:07:25;;;;;;;;;;;;;;;;;;343217;28;906;-40
2022/04/24 00:07:35;;;;;;;;;;;;;;;;;;343547;28;863;-38
2022/04/24 00:07:45;;;;;;;;;;;;;;;;;;342022;28;886;-42
2022/04/24 00:07:56;;;;;;;;;;;;;;;;;;343380;28;1150;-39
2022/04/24 00:08:08;;;;;;;;;;;;;;;;;;343640;28;820;-40
2022/04/24 00:08:18;;;;;;;;;;;;;;;;;;343417;28;1024;-38
2022/04/24 00:08:29;;;;;;;;;;;;;;;;;;343273;28;1296;-40
2022/04/24 00:08:39;;;;;;;;;;;;;;;;;;343440;28;988;-37
2022/04/24 00:08:49;;;;;;;;;;;;;;;;;;343719;28;821;-39
2022/04/24 00:09:00;;;;;;;;;;;;;;;;;;343528;28;836;-39
2022/04/24 00:09:10;;;;;;;;;;;;;;;;;;343622;28;887;-38
2022/04/24 00:09:21;;;;;;;;;;;;;;;;;;343296;28;1195;-41
2022/04/24 00:09:31;;;;;;;;;;;;;;;;;;343371;28;921;-40
2022/04/24 00:09:41;;;;;;;;;;;;;;;;;;343281;28;1263;-39
2022/04/24 00:09:51;;;;;;;;;;;;;;;;;;343399;28;1012;-38
2022/04/24 00:10:02;;;;;;;;;;;;;;;;;;343407;28;993;-40
2022/04/24 00:10:12;;;;;;;;;;;;;;;;;;343573;28;886;-41
2022/04/24 00:10:23;;;;;;;;;;;;;;;;;;343135;28;847;-40
2022/04/24 00:10:33;;;;;;;;;;;;;;;;;;343344;28;929;-40
2022/04/24 00:10:43;;;;;;;;;;;;;;;;;;343339;28;843;-40
2022/04/24 00:10:54;;;;;;;;;;;;;;;;;;343499;28;898;-40
2022/04/24 00:11:04;;;;;;;;;;;;;;;;;;343366;28;937;-41
2022/04/24 00:11:15;;;;;;;;;;;;;;;;;;343295;28;938;-41
2022/04/24 00:11:25;;;;;;;;;;;;;;;;;;343250;28;788;-40
2022/04/24 00:11:36;;;;;;;;;;;;;;;;;;343383;28;960;-39
2022/04/24 00:11:46;;;;;;;;;;;;;;;;;;343451;28;982;-40
2022/04/24 00:11:57;;;;;;;;;;;;;;;;;;343352;28;923;-39
2022/04/24 00:12:09;;;;;;;;;;;;;;;;;;343523;28;922;-38
2022/04/24 00:12:19;;;;;;;;;;;;;;;;;;343434;28;981;-38
2022/04/24 00:12:30;;;;;;;;;;;;;;;;;;343204;28;1633;-37
2022/04/24 00:12:40;;;;;;;;;;;;;;;;;;343524;28;1124;-40
2022/04/24 00:12:50;;;;;;;;;;;;;;;;;;343597;28;949;-40
2022/04/24 00:13:03;;;;;;;;;;;;;;;;;;343444;28;960;-36
2022/04/24 00:13:13;;;;;;;;;;;;;;;;;;343657;28;791;-39
2022/04/24 00:13:24;;;;;;;;;;;;;;;;;;343123;28;977;-39
2022/04/24 00:13:41;;;;;;;;;;;;;;;;;;343544;28;799;-38
2022/04/24 00:13:52;;;;;;;;;;;;;;;;;;343653;28;823;-38
2022/04/24 00:14:07;;;;;;;;;;;;;;;;;;343503;28;787;-41
2022/04/24 00:14:19;;;;;;;;;;;;;;;;;;343376;28;1071;-40
2022/04/24 00:14:30;;;;;;;;;;;;;;;;;;343262;28;886;-41
2022/04/24 00:14:41;;;;;;;;;;;;;;;;;;343325;28;649;-39
2022/04/24 00:14:51;;;;;;;;;;;;;;;;;;343489;28;944;-39
2022/04/24 00:15:02;;;;;;;;;;;;;;;;;;343145;28;1053;-39
2022/04/24 00:15:12;;;;;;;;;;;;;;;;;;343526;28;952;-38
2022/04/24 00:15:24;;;;;;;;;;;;;;;;;;342989;28;843;-40
2022/04/24 00:15:34;;;;;;;;;;;;;;;;;;343270;28;902;-37
2022/04/24 00:15:45;;;;;;;;;;;;;;;;;;343577;28;834;-41
2022/04/24 00:15:55;;;;;;;;;;;;;;;;;;343519;28;826;-39
2022/04/24 00:16:06;;;;;;;;;;;;;;;;;;343353;28;538;-41
2022/04/24 00:16:16;;;;;;;;;;;;;;;;;;343229;28;1005;-38
2022/04/24 00:16:26;;;;;;;;;;;;;;;;;;343202;28;826;-40
2022/04/24 00:16:37;;;;;;;;;;;;;;;;;;343470;28;910;-40
2022/04/24 00:16:47;;;;;;;;;;;;;;;;;;343572;28;885;-41
2022/04/24 00:16:58;;;;;;;;;;;;;;;;;;343408;28;1191;-41
2022/04/24 00:17:08;;;;;;;;;;;;;;;;;;343665;28;898;-40
2022/04/24 00:17:20;;;;;;;;;;;;;;;;;;343424;28;802;-40
2022/04/24 00:17:31;;;;;;;;;;;;;;;;;;343220;28;945;-41
2022/04/24 00:17:41;;;;;;;;;;;;;;;;;;343521;28;1027;-37
2022/04/24 00:17:51;;;;;;;;;;;;;;;;;;343585;28;906;-38
2022/04/24 00:18:01;;;;;;;;;;;;;;;;;;343404;28;1100;-41
2022/04/24 00:18:12;;;;;;;;;;;;;;;;;;343490;28;971;-40
2022/04/24 00:18:22;;;;;;;;;;;;;;;;;;343286;28;763;-41
2022/04/24 00:18:33;;;;;;;;;;;;;;;;;;343583;28;843;-40
2022/04/24 00:18:43;;;;;;;;;;;;;;;;;;343519;28;934;-39
2022/04/24 00:18:53;;;;;;;;;;;;;;;;;;343491;28;949;-39
2022/04/24 00:19:04;;;;;;;;;;;;;;;;;;343415;28;1198;-41
2022/04/24 00:19:18;;;;;;;;;;;;;;;;;;343480;28;945;-40
2022/04/24 00:19:29;;;;;;;;;;;;;;;;;;342995;28;1127;-41
2022/04/24 00:19:39;;;;;;;;;;;;;;;;;;343569;28;953;-39
2022/04/24 00:19:49;;;;;;;;;;;;;;;;;;343548;28;901;-40
2022/04/24 00:20:00;;;;;;;;;;;;;;;;;;343446;28;925;-38
2022/04/24 00:20:10;;;;;;;;;;;;;;;;;;343560;28;881;-40
2022/04/24 00:20:21;;;;;;;;;;;;;;;;;;343517;28;897;-41
2022/04/24 00:20:31;;;;;;;;;;;;;;;;;;343350;28;842;-38
2022/04/24 00:20:44;;;;;;;;;;;;;;;;;;343407;28;949;-40
2022/04/24 00:20:55;;;;;;;;;;;;;;;;;;343445;28;945;-41
2022/04/24 00:21:05;;;;;;;;;;;;;;;;;;343637;28;1005;-40
2022/04/24 00:21:15;;;;;;;;;;;;;;;;;;343435;28;1236;-38
2022/04/24 00:21:25;;;;;;;;;;;;;;;;;;343109;28;1273;-40
2022/04/24 00:21:36;;;;;;;;;;;;;;;;;;343499;28;855;-40
2022/04/24 00:21:47;;;;;;;;;;;;;;;;;;343592;28;894;-40
2022/04/24 00:21:57;;;;;;;;;;;;;;;;;;343246;28;978;-41
2022/04/24 00:22:08;;;;;;;;;;;;;;;;;;343680;28;859;-39
2022/04/24 00:22:18;;;;;;;;;;;;;;;;;;343486;28;1056;-38
2022/04/24 00:22:29;;;;;;;;;;;;;;;;;;343280;28;800;-41
2022/04/24 00:22:39;;;;;;;;;;;;;;;;;;343396;28;943;-38
2022/04/24 00:22:49;;;;;;;;;;;;;;;;;;343570;28;973;-40
2022/04/24 00:23:00;;;;;;;;;;;;;;;;;;343366;28;787;-40
2022/04/24 00:23:10;;;;;;;;;;;;;;;;;;343514;28;953;-40
2022/04/24 00:23:20;;;;;;;;;;;;;;;;;;343496;28;1069;-41
2022/04/24 00:23:32;;;;;;;;;;;;;;;;;;343430;28;851;-40
2022/04/24 00:23:43;;;;;;;;;;;;;;;;;;343526;28;838;-39
2022/04/24 00:23:53;;;;;;;;;;;;;;;;;;343486;28;934;-39
2022/04/24 00:24:04;;;;;;;;;;;;;;;;;;343429;28;976;-36
2022/04/24 00:24:14;;;;;;;;;;;;;;;;;;343516;28;901;-40
2022/04/24 00:24:25;;;;;;;;;;;;;;;;;;343301;28;1124;-37
2022/04/24 00:24:35;;;;;;;;;;;;;;;;;;343396;28;987;-39
2022/04/24 00:24:46;;;;;;;;;;;;;;;;;;343626;28;1054;-40
2022/04/24 00:24:56;;;;;;;;;;;;;;;;;;343461;28;1124;-40
2022/04/24 00:25:06;;;;;;;;;;;;;;;;;;343524;28;1000;-40
2022/04/24 00:25:17;;;;;;;;;;;;;;;;;;343409;28;810;-41
2022/04/24 00:25:27;;;;;;;;;;;;;;;;;;343321;28;855;-41
2022/04/24 00:25:37;;;;;;;;;;;;;;;;;;343489;28;938;-40
2022/04/24 00:25:48;;;;;;;;;;;;;;;;;;343470;28;1015;-40
2022/04/24 00:25:58;;;;;;;;;;;;;;;;;;343559;28;928;-39
2022/04/24 00:26:09;;;;;;;;;;;;;;;;;;343554;28;949;-41
2022/04/24 00:26:19;;;;;;;;;;;;;;;;;;343480;28;815;-40
2022/04/24 00:26:29;;;;;;;;;;;;;;;;;;343244;28;970;-40
2022/04/24 00:26:40;;;;;;;;;;;;;;;;;;343386;28;842;-41
2022/04/24 00:26:50;;;;;;;;;;;;;;;;;;343261;28;688;-41
2022/04/24 00:27:01;;;;;;;;;;;;;;;;;;343375;28;887;-41
2022/04/24 00:27:12;;;;;;;;;;;;;;;;;;343651;28;993;-39
2022/04/24 00:27:22;;;;;;;;;;;;;;;;;;343339;28;945;-42
2022/04/24 00:27:32;;;;;;;;;;;;;;;;;;343430;28;819;-41
2022/04/24 00:27:43;;;;;;;;;;;;;;;;;;343423;28;1136;-41
2022/04/24 00:27:53;;;;;;;;;;;;;;;;;;343693;28;854;-39
2022/04/24 00:28:03;;;;;;;;;;;;;;;;;;343442;28;957;-40
2022/04/24 00:28:14;;;;;;;;;;;;;;;;;;343406;28;965;-41
2022/04/24 00:28:24;;;;;;;;;;;;;;;;;;343236;28;939;-42
2022/04/24 00:28:35;;;;;;;;;;;;;;;;;;343619;28;933;-40
2022/04/24 00:28:45;;;;;;;;;;;;;;;;;;343565;28;827;-38
2022/04/24 00:28:55;;;;;;;;;;;;;;;;;;343432;28;989;-39
2022/04/24 00:29:06;;;;;;;;;;;;;;;;;;343636;28;839;-39
2022/04/24 00:29:16;;;;;;;;;;;;;;;;;;343478;28;961;-40
2022/04/24 00:29:26;;;;;;;;;;;;;;;;;;343191;28;936;-42
2022/04/24 00:29:37;;;;;;;;;;;;;;;;;;343452;28;1096;-40
2022/04/24 00:29:47;;;;;;;;;;;;;;;;;;343625;28;1748;-40
2022/04/24 00:29:58;;;;;;;;;;;;;;;;;;343465;28;834;-41
2022/04/24 00:30:08;;;;;;;;;;;;;;;;;;343612;28;1082;-39
2022/04/24 00:30:19;;;;;;;;;;;;;;;;;;343330;28;1064;-38
2022/04/24 00:30:29;;;;;;;;;;;;;;;;;;343357;28;960;-40
2022/04/24 00:30:39;;;;;;;;;;;;;;;;;;343461;28;1130;-38
2022/04/24 00:30:49;;;;;;;;;;;;;;;;;;343372;28;1204;-38
2022/04/24 00:31:00;;;;;;;;;;;;;;;;;;343528;28;807;-36
2022/04/24 00:31:10;;;;;;;;;;;;;;;;;;343662;28;823;-41
2022/04/24 00:31:20;;;;;;;;;;;;;;;;;;343482;28;894;-39
2022/04/24 00:31:31;;;;;;;;;;;;;;;;;;343091;28;1025;-40
2022/04/24 00:31:41;;;;;;;;;;;;;;;;;;343576;28;843;-39
2022/04/24 00:31:51;;;;;;;;;;;;;;;;;;343518;28;886;-39
2022/04/24 00:32:02;;;;;;;;;;;;;;;;;;343421;28;792;-42
2022/04/24 00:32:13;;;;;;;;;;;;;;;;;;343498;28;949;-38
2022/04/24 00:32:23;;;;;;;;;;;;;;;;;;343390;28;843;-39
2022/04/24 00:32:33;;;;;;;;;;;;;;;;;;343522;28;862;-41
2022/04/24 00:32:44;;;;;;;;;;;;;;;;;;343462;28;1059;-36
2022/04/24 00:32:54;;;;;;;;;;;;;;;;;;343586;28;949;-37
2022/04/24 00:33:04;;;;;;;;;;;;;;;;;;343572;28;819;-39
2022/04/24 00:33:15;;;;;;;;;;;;;;;;;;343465;28;827;-38
2022/04/24 00:33:25;;;;;;;;;;;;;;;;;;343174;28;962;-37
2022/04/24 00:33:35;;;;;;;;;;;;;;;;;;343489;28;882;-38
2022/04/24 00:33:46;;;;;;;;;;;;;;;;;;343567;28;981;-37
2022/04/24 00:33:56;;;;;;;;;;;;;;;;;;343523;28;878;-38
2022/04/24 00:34:06;;;;;;;;;;;;;;;;;;343337;28;993;-38
2022/04/24 00:34:16;;;;;;;;;;;;;;;;;;343309;28;882;-40
2022/04/24 00:34:27;;;;;;;;;;;;;;;;;;343306;28;874;-40
2022/04/24 00:34:37;;;;;;;;;;;;;;;;;;343515;28;1269;-33
2022/04/24 00:34:47;;;;;;;;;;;;;;;;;;343493;28;987;-39
2022/04/24 00:34:58;;;;;;;;;;;;;;;;;;343534;28;945;-41
2022/04/24 00:35:08;;;;;;;;;;;;;;;;;;343591;28;830;-40
2022/04/24 00:35:18;;;;;;;;;;;;;;;;;;343431;28;1063;-39
2022/04/24 00:35:31;;;;;;;;;;;;;;;;;;343355;28;934;-39
2022/04/24 00:35:41;;;;;;;;;;;;;;;;;;343521;28;822;-41
2022/04/24 00:35:51;;;;;;;;;;;;;;;;;;343532;28;992;-38
2022/04/24 00:36:01;;;;;;;;;;;;;;;;;;343375;28;1058;-39
2022/04/24 00:36:12;;;;;;;;;;;;;;;;;;343608;28;791;-41
2022/04/24 00:36:23;;;;;;;;;;;;;;;;;;343333;28;957;-39
2022/04/24 00:36:33;;;;;;;;;;;;;;;;;;343338;28;1598;-40
2022/04/24 00:36:46;;;;;;;;;;;;;;;;;;343553;28;775;-38
2022/04/24 00:36:57;;;;;;;;;;;;;;;;;;343484;28;807;-41
2022/04/24 00:37:07;;;;;;;;;;;;;;;;;;343557;28;795;-36
2022/04/24 00:37:17;;;;;;;;;;;;;;;;;;343374;28;923;-38
2022/04/24 00:37:29;;;;;;;;;;;;;;;;;;343327;28;1590;-40
2022/04/24 00:37:40;;;;;;;;;;;;;;;;;;343506;28;1700;-45
2022/04/24 00:37:50;;;;;;;;;;;;;;;;;;343487;28;1060;-40
2022/04/24 00:38:00;;;;;;;;;;;;;;;;;;343510;28;977;-38
2022/04/24 00:38:11;;;;;;;;;;;;;;;;;;343528;28;997;-41
2022/04/24 00:38:21;;;;;;;;;;;;;;;;;;343374;28;803;-36
2022/04/24 00:38:32;;;;;;;;;;;;;;;;;;342997;28;1067;-39
2022/04/24 00:38:42;;;;;;;;;;;;;;;;;;343402;28;826;-40
2022/04/24 00:38:52;;;;;;;;;;;;;;;;;;343312;28;1036;-41
2022/04/24 00:39:03;;;;;;;;;;;;;;;;;;343376;28;788;-39
2022/04/24 00:39:14;;;;;;;;;;;;;;;;;;343348;28;970;-39
2022/04/24 00:39:24;;;;;;;;;;;;;;;;;;343026;28;1934;-41
2022/04/24 00:39:34;;;;;;;;;;;;;;;;;;343311;28;795;-41
2022/04/24 00:39:44;;;;;;;;;;;;;;;;;;343337;28;1200;-39
2022/04/24 00:39:55;;;;;;;;;;;;;;;;;;343376;28;854;-40
2022/04/24 00:40:06;;;;;;;;;;;;;;;;;;343383;28;933;-41
2022/04/24 00:40:19;;;;;;;;;;;;;;;;;;343453;28;783;-38
2022/04/24 00:40:29;;;;;;;;;;;;;;;;;;343205;28;990;-39
2022/04/24 00:40:40;;;;;;;;;;;;;;;;;;343529;28;918;-40
2022/04/24 00:40:50;;;;;;;;;;;;;;;;;;343642;28;830;-41
2022/04/24 00:41:01;;;;;;;;;;;;;;;;;;343388;28;1049;-40
2022/04/24 00:41:11;;;;;;;;;;;;;;;;;;343539;28;898;-41
2022/04/24 00:41:21;;;;;;;;;;;;;;;;;;343450;28;978;-40
2022/04/24 00:41:31;;;;;;;;;;;;;;;;;;343093;28;822;-39
2022/04/24 00:41:46;;;;;;;;;;;;;;;;;;343250;28;962;-40
2022/04/24 00:41:56;;;;;;;;;;;;;;;;;;343436;28;894;-39
2022/04/24 00:42:08;;;;;;;;;;;;;;;;;;343528;28;1024;-40
2022/04/24 00:42:18;;;;;;;;;;;;;;;;;;343383;28;962;-40
2022/04/24 00:42:32;;;;;;;;;;;;;;;;;;343365;28;913;-39
2022/04/24 00:42:42;;;;;;;;;;;;;;;;;;343469;28;966;-40
2022/04/24 00:42:52;;;;;;;;;;;;;;;;;;343620;28;855;-40
2022/04/24 00:43:03;;;;;;;;;;;;;;;;;;343376;28;1056;-41
2022/04/24 00:43:33;;;;;;;;;;;;;;;;;;343336;28;957;-40
2022/04/24 00:44:14;;;;;;;;;;;;;;;;;;343253;28;1384;-40
2022/04/24 00:44:59;;;;;;;;;;;;;;;;;;341890;28;1392;-39
2022/04/24 00:45:21;;;;;;;;;;;;;;;;;;340588;28;1400;-40
2022/04/24 00:45:33;;;;;;;;;;;;;;;;;;340565;28;1377;-36
2022/04/24 00:45:44;;;;;;;;;;;;;;;;;;340767;28;945;-39
2022/04/24 00:46:26;;;;;;;;;;;;;;;;;;340761;28;919;-40
2022/04/24 00:46:40;;;;;;;;;;;;;;;;;;340415;29;1020;-39
2022/04/24 00:46:55;;;;;;;;;;;;;;;;;;340525;29;1019;-39
2022/04/24 00:47:09;;;;;;;;;;;;;;;;;;339162;29;1228;-40
2022/04/24 00:47:21;;;;;;;;;;;;;;;;;;339271;29;977;-43
2022/04/24 00:47:32;;;;;;;;;;;;;;;;;;340181;29;827;-39
2022/04/24 00:47:42;;;;;;;;;;;;;;;;;;340629;29;835;-39
2022/04/24 00:47:53;;;;;;;;;;;;;;;;;;342270;28;1203;-40
2022/04/24 00:48:03;;;;;;;;;;;;;;;;;;343346;28;899;-39
2022/04/24 00:48:14;;;;;;;;;;;;;;;;;;343517;28;1193;-40
2022/04/24 00:48:24;;;;;;;;;;;;;;;;;;343275;28;1004;-40
2022/04/24 00:48:35;;;;;;;;;;;;;;;;;;343436;28;949;-38
2022/04/24 00:48:45;;;;;;;;;;;;;;;;;;343457;28;929;-37
2022/04/24 00:48:55;;;;;;;;;;;;;;;;;;343281;28;902;-40
2022/04/24 00:49:07;;;;;;;;;;;;;;;;;;343354;28;1017;-39
2022/04/24 00:49:18;;;;;;;;;;;;;;;;;;343330;28;1644;-39
2022/04/24 00:49:28;;;;;;;;;;;;;;;;;;343390;28;776;-38
2022/04/24 00:49:40;;;;;;;;;;;;;;;;;;343385;28;886;-38
2022/04/24 00:49:50;;;;;;;;;;;;;;;;;;343564;28;1017;-40
2022/04/24 00:50:00;;;;;;;;;;;;;;;;;;343447;28;970;-39
2022/04/24 00:50:11;;;;;;;;;;;;;;;;;;343594;28;997;-39
2022/04/24 00:50:21;;;;;;;;;;;;;;;;;;343358;28;989;-39
2022/04/24 00:50:31;;;;;;;;;;;;;;;;;;343250;28;970;-38
2022/04/24 00:50:43;;;;;;;;;;;;;;;;;;343452;28;878;-39
2022/04/24 00:50:53;;;;;;;;;;;;;;;;;;343600;28;1002;-40
2022/04/24 00:51:04;;;;;;;;;;;;;;;;;;343424;28;775;-40
2022/04/24 00:51:14;;;;;;;;;;;;;;;;;;343331;28;1130;-40
2022/04/24 00:51:25;;;;;;;;;;;;;;;;;;343356;28;799;-40
2022/04/24 00:51:37;;;;;;;;;;;;;;;;;;343420;28;922;-41
2022/04/24 00:51:49;;;;;;;;;;;;;;;;;;343465;28;1173;-36
2022/04/24 00:51:59;;;;;;;;;;;;;;;;;;343362;28;834;-40
2022/04/24 00:52:10;;;;;;;;;;;;;;;;;;343552;28;1083;-41
2022/04/24 00:52:20;;;;;;;;;;;;;;;;;;343442;28;957;-40
2022/04/24 00:52:30;;;;;;;;;;;;;;;;;;342924;28;1102;-41
2022/04/24 00:52:41;;;;;;;;;;;;;;;;;;343371;28;953;-39
2022/04/24 00:52:51;;;;;;;;;;;;;;;;;;343485;28;984;-39
2022/04/24 00:53:02;;;;;;;;;;;;;;;;;;343261;28;886;-41
2022/04/24 00:53:12;;;;;;;;;;;;;;;;;;343334;28;1062;-40
2022/04/24 00:53:22;;;;;;;;;;;;;;;;;;343195;28;802;-41
2022/04/24 00:53:33;;;;;;;;;;;;;;;;;;343352;28;965;-38
2022/04/24 00:53:43;;;;;;;;;;;;;;;;;;343039;28;1193;-40
2022/04/24 00:53:54;;;;;;;;;;;;;;;;;;343495;28;1674;-41
2022/04/24 00:54:05;;;;;;;;;;;;;;;;;;343504;28;823;-38
2022/04/24 00:54:16;;;;;;;;;;;;;;;;;;343406;28;870;-39
2022/04/24 00:54:26;;;;;;;;;;;;;;;;;;343190;28;1202;-38
2022/04/24 00:54:37;;;;;;;;;;;;;;;;;;343397;28;799;-39
2022/04/24 00:54:47;;;;;;;;;;;;;;;;;;343520;28;776;-38
2022/04/24 00:54:58;;;;;;;;;;;;;;;;;;343434;28;1343;-39
2022/04/24 00:55:08;;;;;;;;;;;;;;;;;;343557;28;1222;-39
2022/04/24 00:55:21;;;;;;;;;;;;;;;;;;343509;28;993;-40
2022/04/24 00:55:32;;;;;;;;;;;;;;;;;;343362;28;977;-39
2022/04/24 00:55:42;;;;;;;;;;;;;;;;;;343311;28;1175;-40
2022/04/24 00:55:53;;;;;;;;;;;;;;;;;;343547;28;977;-37
2022/04/24 00:56:03;;;;;;;;;;;;;;;;;;343463;28;890;-40
2022/04/24 00:56:14;;;;;;;;;;;;;;;;;;343491;28;934;-40
2022/04/24 00:56:30;;;;;;;;;;;;;;;;;;342962;28;1307;-39
2022/04/24 00:56:42;;;;;;;;;;;;;;;;;;343443;28;890;-37
2022/04/24 00:56:52;;;;;;;;;;;;;;;;;;343526;28;969;-38
2022/04/24 00:57:05;;;;;;;;;;;;;;;;;;343474;28;945;-39
2022/04/24 00:57:16;;;;;;;;;;;;;;;;;;343431;28;949;-39
2022/04/24 00:57:27;;;;;;;;;;;;;;;;;;343316;28;977;-41
2022/04/24 00:57:37;;;;;;;;;;;;;;;;;;343128;28;930;-40
2022/04/24 00:57:47;;;;;;;;;;;;;;;;;;343613;28;772;-39
2022/04/24 00:57:58;;;;;;;;;;;;;;;;;;343477;28;1029;-41
2022/04/24 00:58:09;;;;;;;;;;;;;;;;;;343431;28;950;-39
2022/04/24 00:58:19;;;;;;;;;;;;;;;;;;343497;28;986;-39
2022/04/24 00:58:30;;;;;;;;;;;;;;;;;;343349;28;1088;-38
2022/04/24 00:58:41;;;;;;;;;;;;;;;;;;343353;28;1036;-40
2022/04/24 00:58:51;;;;;;;;;;;;;;;;;;343424;28;939;-40
2022/04/24 00:59:02;;;;;;;;;;;;;;;;;;343356;28;968;-38
2022/04/24 00:59:14;;;;;;;;;;;;;;;;;;343575;28;890;-40
2022/04/24 00:59:24;;;;;;;;;;;;;;;;;;343268;28;1911;-35
2022/04/24 00:59:34;;;;;;;;;;;;;;;;;;343360;28;886;-40
2022/04/24 00:59:45;;;;;;;;;;;;;;;;;;343458;28;945;-41
2022/04/24 00:59:55;;;;;;;;;;;;;;;;;;343458;28;1649;-41
2022/04/24 01:00:06;;;;;;;;;;;;;;;;;;343373;28;950;-37
2022/04/24 01:00:16;;;;;;;;;;;;;;;;;;343506;28;934;-39
2022/04/24 01:00:26;;;;;;;;;;;;;;;;;;343234;28;791;-40
2022/04/24 01:00:38;;;;;;;;;;;;;;;;;;343418;28;910;-37
2022/04/24 01:00:48;;;;;;;;;;;;;;;;;;343316;28;1068;-40
2022/04/24 01:01:00;;;;;;;;;;;;;;;;;;343565;28;850;-40
2022/04/24 01:01:10;;;;;;;;;;;;;;;;;;343438;28;894;-40
2022/04/24 01:01:21;;;;;;;;;;;;;;;;;;343373;28;858;-38
2022/04/24 01:01:34;;;;;;;;;;;;;;;;;;343185;28;882;-38
2022/04/24 01:01:45;;;;;;;;;;;;;;;;;;343483;28;1787;-40
2022/04/24 01:01:55;;;;;;;;;;;;;;;;;;343303;28;842;-37
2022/04/24 01:02:06;;;;;;;;;;;;;;;;;;343445;28;871;-37
2022/04/24 01:02:17;;;;;;;;;;;;;;;;;;343377;28;989;-41
2022/04/24 01:02:27;;;;;;;;;;;;;;;;;;343367;28;965;-39
2022/04/24 01:02:38;;;;;;;;;;;;;;;;;;343423;28;974;-37
2022/04/24 01:02:48;;;;;;;;;;;;;;;;;;343494;28;850;-41
2022/04/24 01:02:59;;;;;;;;;;;;;;;;;;343480;28;977;-37
2022/04/24 01:03:10;;;;;;;;;;;;;;;;;;343516;28;831;-38
2022/04/24 01:03:20;;;;;;;;;;;;;;;;;;343422;28;966;-40
2022/04/24 01:03:30;;;;;;;;;;;;;;;;;;343316;28;830;-40
2022/04/24 01:03:41;;;;;;;;;;;;;;;;;;343507;28;918;-40
2022/04/24 01:03:52;;;;;;;;;;;;;;;;;;343231;28;842;-41
2022/04/24 01:04:05;;;;;;;;;;;;;;;;;;343405;28;1125;-39
2022/04/24 01:04:16;;;;;;;;;;;;;;;;;;343250;28;1218;-41
2022/04/24 01:04:26;;;;;;;;;;;;;;;;;;343288;28;1016;-40
2022/04/24 01:04:37;;;;;;;;;;;;;;;;;;343309;28;1195;-38
2022/04/24 01:04:48;;;;;;;;;;;;;;;;;;343419;28;960;-40
2022/04/24 01:04:58;;;;;;;;;;;;;;;;;;343450;28;914;-39
2022/04/24 01:05:09;;;;;;;;;;;;;;;;;;343436;28;1128;-39
2022/04/24 01:05:19;;;;;;;;;;;;;;;;;;343450;28;1675;-40
2022/04/24 01:05:29;;;;;;;;;;;;;;;;;;343259;28;933;-39
2022/04/24 01:05:39;;;;;;;;;;;;;;;;;;343441;28;933;-38
2022/04/24 01:05:50;;;;;;;;;;;;;;;;;;343374;28;958;-37
2022/04/24 01:06:00;;;;;;;;;;;;;;;;;;343432;28;850;-40
2022/04/24 01:06:11;;;;;;;;;;;;;;;;;;343519;28;1001;-39
2022/04/24 01:06:21;;;;;;;;;;;;;;;;;;343536;28;882;-40
2022/04/24 01:06:33;;;;;;;;;;;;;;;;;;343032;28;885;-41
2022/04/24 01:06:43;;;;;;;;;;;;;;;;;;343542;28;906;-37
2022/04/24 01:06:53;;;;;;;;;;;;;;;;;;343231;28;958;-41
2022/04/24 01:07:04;;;;;;;;;;;;;;;;;;343438;28;950;-35
2022/04/24 01:07:14;;;;;;;;;;;;;;;;;;343498;28;1008;-39
2022/04/24 01:07:25;;;;;;;;;;;;;;;;;;343337;28;819;-40
2022/04/24 01:07:35;;;;;;;;;;;;;;;;;;343419;28;946;-39
2022/04/24 01:07:45;;;;;;;;;;;;;;;;;;343246;28;1049;-39
2022/04/24 01:07:56;;;;;;;;;;;;;;;;;;343127;28;890;-41
2022/04/24 01:08:06;;;;;;;;;;;;;;;;;;343484;28;945;-40
2022/04/24 01:08:17;;;;;;;;;;;;;;;;;;343433;28;788;-40
2022/04/24 01:08:27;;;;;;;;;;;;;;;;;;343097;28;1280;-41
2022/04/24 01:08:37;;;;;;;;;;;;;;;;;;343564;28;962;-39
2022/04/24 01:08:47;;;;;;;;;;;;;;;;;;343459;28;806;-36
2022/04/24 01:09:15;;;;;;;;;;;;;;;;;;343324;28;1030;-41
2022/04/24 01:09:26;;;;;;;;;;;;;;;;;;343270;28;846;-40
2022/04/24 01:09:37;;;;;;;;;;;;;;;;;;343288;28;1142;-39
2022/04/24 01:09:47;;;;;;;;;;;;;;;;;;343585;28;993;-37
2022/04/24 01:09:58;;;;;;;;;;;;;;;;;;343439;28;858;-39
2022/04/24 01:10:08;;;;;;;;;;;;;;;;;;343463;28;929;-39
2022/04/24 01:10:18;;;;;;;;;;;;;;;;;;343473;28;1077;-39
2022/04/24 01:10:35;;;;;;;;;;;;;;;;;;343323;28;894;-38
2022/04/24 01:10:46;;;;;;;;;;;;;;;;;;343422;28;957;-40
2022/04/24 01:10:56;;;;;;;;;;;;;;;;;;343262;28;1119;-41
2022/04/24 01:11:06;;;;;;;;;;;;;;;;;;343468;28;788;-40
2022/04/24 01:11:17;;;;;;;;;;;;;;;;;;343253;28;839;-38
2022/04/24 01:11:27;;;;;;;;;;;;;;;;;;343228;28;933;-40
2022/04/24 01:11:38;;;;;;;;;;;;;;;;;;343416;28;1324;-39
2022/04/24 01:11:52;;;;;;;;;;;;;;;;;;343440;28;886;-40
2022/04/24 01:12:03;;;;;;;;;;;;;;;;;;343372;28;1039;-39
2022/04/24 01:12:13;;;;;;;;;;;;;;;;;;343326;28;1093;-39
2022/04/24 01:12:24;;;;;;;;;;;;;;;;;;343398;28;795;-40
2022/04/24 01:12:34;;;;;;;;;;;;;;;;;;343436;28;946;-40
2022/04/24 01:12:44;;;;;;;;;;;;;;;;;;343412;28;950;-38
2022/04/24 01:12:55;;;;;;;;;;;;;;;;;;343365;28;987;-40
2022/04/24 01:13:06;;;;;;;;;;;;;;;;;;343498;28;922;-38
2022/04/24 01:13:16;;;;;;;;;;;;;;;;;;343360;28;973;-40
2022/04/24 01:13:26;;;;;;;;;;;;;;;;;;343191;28;1119;-40
2022/04/24 01:13:36;;;;;;;;;;;;;;;;;;343469;28;922;-37
2022/04/24 01:13:47;;;;;;;;;;;;;;;;;;343541;28;887;-37
2022/04/24 01:13:57;;;;;;;;;;;;;;;;;;343422;28;791;-40
2022/04/24 01:14:08;;;;;;;;;;;;;;;;;;343293;28;938;-41
2022/04/24 01:14:19;;;;;;;;;;;;;;;;;;343603;28;898;-40
2022/04/24 01:14:30;;;;;;;;;;;;;;;;;;343241;28;858;-41
2022/04/24 01:14:41;;;;;;;;;;;;;;;;;;343430;28;870;-38
2022/04/24 01:14:51;;;;;;;;;;;;;;;;;;343452;28;929;-41
2022/04/24 01:15:02;;;;;;;;;;;;;;;;;;343500;28;930;-40
2022/04/24 01:15:12;;;;;;;;;;;;;;;;;;343295;28;1012;-40
2022/04/24 01:15:23;;;;;;;;;;;;;;;;;;343190;28;1010;-40
2022/04/24 01:15:33;;;;;;;;;;;;;;;;;;343524;28;942;-38
2022/04/24 01:15:44;;;;;;;;;;;;;;;;;;343501;28;902;-40
2022/04/24 01:15:57;;;;;;;;;;;;;;;;;;343432;28;919;-37
2022/04/24 01:16:07;;;;;;;;;;;;;;;;;;343372;28;938;-40
2022/04/24 01:16:17;;;;;;;;;;;;;;;;;;343557;28;798;-40
2022/04/24 01:16:28;;;;;;;;;;;;;;;;;;343260;28;985;-37
2022/04/24 01:16:38;;;;;;;;;;;;;;;;;;343375;28;1029;-38
2022/04/24 01:16:49;;;;;;;;;;;;;;;;;;343496;28;973;-38
2022/04/24 01:17:00;;;;;;;;;;;;;;;;;;343464;28;966;-37
2022/04/24 01:17:10;;;;;;;;;;;;;;;;;;343371;28;858;-41
2022/04/24 01:17:20;;;;;;;;;;;;;;;;;;343461;28;1009;-33
2022/04/24 01:17:31;;;;;;;;;;;;;;;;;;343223;28;822;-38
2022/04/24 01:17:41;;;;;;;;;;;;;;;;;;343506;28;941;-39
2022/04/24 01:17:52;;;;;;;;;;;;;;;;;;343170;28;1752;-40
2022/04/24 01:18:02;;;;;;;;;;;;;;;;;;343399;28;1113;-39
2022/04/24 01:18:13;;;;;;;;;;;;;;;;;;343513;28;1064;-40
2022/04/24 01:18:24;;;;;;;;;;;;;;;;;;343249;28;843;-40
2022/04/24 01:18:34;;;;;;;;;;;;;;;;;;343098;28;1037;-38
2022/04/24 01:18:45;;;;;;;;;;;;;;;;;;343488;28;969;-39
2022/04/24 01:18:55;;;;;;;;;;;;;;;;;;343388;28;842;-39
2022/04/24 01:19:06;;;;;;;;;;;;;;;;;;343448;28;918;-39